Aimar Pérez

Скаут - Real Sociedad
4 Апр 2027
Воскресенье
Продолжить

Характер

Адаптивность (13) Амбиции (16) Скандальность (10) Верность (17) Стрессоустойчивость (9) Профессионализм (16) Благородство (12) Темперамент (3)

Профиль

Стиль управления Демократичный
Лицензия Континентальная A
Решительность 8
Управление людьми 7
Мотивация 15
Дисциплина 9
Удовлетворённость
50%
Усталость
0%
Должность Скаут
Зарплата 113.7K в нед.
Контракт 14.03.2029

Производительность

Поведение Нормальное
Эффективность тренировок
21%
Развитие игроков
35%
Профилактика травм
35%
Тактическая реализация
45%

Недавние события

Участвовал в селекционном совещании только что
Оценил игрока только что
Оценил игрока только что
Оценил игрока 7 дн. назад
Оценил игрока 7 дн. назад
Оценил игрока 7 дн. назад
Оценил игрока 7 дн. назад
Оценил игрока 7 дн. назад

Текущее наблюдение

158
Игрок Клуб Статус Способность Уверенность Наблюдений Последнее наблюдение Последний голос
Michy Fellaini KV Oostende Активный 139 / 134 40% 6 03.04.2027 -
Nacer Tielemans Mouscron Активный 138 / 129 40% 7 03.04.2027 -
Ngal'Ayel Mukau LOSC Lille Активный 143 / 134 40% 3 03.04.2027 -
Ruan Alanyaspor Активный 125 / 128 40% 3 01.04.2027 -
David Larrubia Málaga Активный 126 / 134 40% 1 01.04.2027 -
Cesare Casadei Torino Активный 130 / 141 40% 1 01.04.2027 -
Bryan González Guadalajara Активный 125 / 140 40% 3 31.03.2027 -
Félix Lemaréchal Club Brugge Активный 132 / 142 40% 1 31.03.2027 -
Arthur Avom Ebong FC Lorient Активный 127 / 138 40% 1 30.03.2027 -
Chris Rigg Sunderland Активный 132 / 135 40% 7 28.03.2027 -
Johann Lepenant FC Nantes Активный 138 / 126 40% 1 28.03.2027 -
Martim Neto Elche Активный 125 / 126 40% 1 28.03.2027 -
Ilay Camara Anderlecht Активный 127 / 131 40% 2 27.03.2027 -
Gustavo Puerta Racing Santander Активный 142 / 139 40% 1 27.03.2027 -
Fer López Wolverhampton Активный 139 / 134 40% 1 27.03.2027 -
Mandela Keita Parma Активный 135 / 136 40% 1 25.03.2027 -
Lorenzo Amatucci Deportivo La Coruña Активный 126 / 135 40% 1 25.03.2027 -
Agustín Gálvez Atlético Tucumán Активный 87 / 98 40% 1 25.03.2027 -
Jayden Spier Willem II Активный 98 / 108 40% 1 25.03.2027 -
Eliás Montiel Pachuca Активный 119 / 132 40% 10 23.03.2027 -
Vanja Dragojević Partizan Активный 108 / 118 40% 2 23.03.2027 -
Aral Şimşir Trabzonspor Активный 129 / 124 40% 1 23.03.2027 -
Alexis Fretes Libertad Активный 112 / 107 40% 1 23.03.2027 -
Gonçalo Oliveira Benfica Активный 109 / 113 40% 1 23.03.2027 -
Agustín Bustinduy Central Norte Активный 103 / 100 40% 1 22.03.2027 -
Luca Campagnaro Colón Активный 79 / 104 40% 1 22.03.2027 -
Cemran Dansin Orlando Pirates Активный 113 / 119 40% 2 19.03.2027 -
Noah Maieroni Brisbane Roar Активный 92 / 109 40% 2 19.03.2027 -
Brian Gutiérrez Guadalajara Активный 128 / 143 40% 1 19.03.2027 -
Juan Pablo Habib Real Santander Активный 88 / 99 40% 1 19.03.2027 -
Camilo Rey Domenech Boca Juniors Активный 116 / 113 40% 2 18.03.2027 -
Jakub Adkonis Lechia Активный 102 / 107 40% 2 18.03.2027 -
Cher Ndour Fiorentina Активный 131 / 130 40% 1 17.03.2027 -
Habib Diarra Sunderland Активный 143 / 136 40% 1 17.03.2027 -
Emirhan Başyiğit Sivasspor Активный 103 / 122 40% 2 10.03.2027 -
Simone Kosijer Triestina Активный 95 / 100 40% 1 10.03.2027 -
Eitan Cohen Maccabi Petach Tikva Активный 95 / 98 40% 1 10.03.2027 -
Surprise Manthosi Polokwane City Активный 85 / 97 40% 1 09.03.2027 -
Maldini Kacurri Grimsby Town Активный 93 / 95 40% 1 09.03.2027 -
Jakub Jendryka Ruch Активный 89 / 87 40% 1 06.03.2027 -
Riyad Idrissi Cagliari Активный 117 / 131 40% 1 04.03.2027 -
Thorgan Nainggolan Mouscron Активный 106 / 109 40% 1 01.03.2027 -
Sam Tickle Wigan Athletic Активный 133 / 132 40% 1 12.01.2027 -
Felipe Parra Envigado Активный 118 / 113 40% 1 12.01.2027 -
Mads Hermansen West Ham United Активный 133 / 132 40% 1 12.01.2027 -
Jorge Pascual Granada Активный 141 / 142 40% 5 31.12.2026 -
Mateo Fernández Angusht Активный 86 / 82 40% 1 31.12.2026 -
Bobby Clark Derby County Активный 129 / 123 40% 9 30.12.2026 -
Exequiel Zeballos Boca Juniors Активный 124 / 139 40% 7 30.12.2026 -
Miguel Rodríguez Alavés Активный 126 / 133 40% 3 30.12.2026 -
Sorriso Famalicao Активный 135 / 123 40% 3 30.12.2026 -
Joaquin Seys Club Brugge Активный 131 / 127 40% 2 30.12.2026 -
Guilherme Fernandes Córdoba Активный 133 / 123 40% 4 29.12.2026 -
Ignacio Russo Tigre Активный 117 / 124 40% 3 29.12.2026 -
Paulinho Palmeiras Активный 139 / 144 40% 1 29.12.2026 -
Iñaki Peña Panathinaikos Активный 143 / 134 40% 1 29.12.2026 -
Gabriel Brazão Santos Активный 137 / 134 40% 1 29.12.2026 -
Diogo Guzmán Montevideo City Torque Активный 105 / 111 40% 2 27.12.2026 -
Valentino Huertas Morón Активный 96 / 105 40% 1 27.12.2026 -
Vitor Roque Palmeiras Активный 143 / 142 40% 1 24.12.2026 -
Tristan Degreef Anderlecht Активный 129 / 122 40% 5 23.12.2026 -
Tamás Szűcs Famalicao Активный 116 / 124 40% 2 23.12.2026 -
Elia Caprile Cagliari Активный 146 / 142 40% 2 22.12.2026 -
Michael Cooper Sheffield United Активный 135 / 135 40% 2 22.12.2026 -
Breno Bidon Corinthians Активный 119 / 135 40% 2 22.12.2026 -
Herba Guirassy Monaco Активный 118 / 128 40% 1 22.12.2026 -
Oleksandr Saputin Zorya Активный 110 / 123 40% 1 22.12.2026 -
Grégoire Coudert Burnley Активный 123 / 122 40% 2 20.12.2026 -
Nahuel Galardi Maipú Активный 101 / 113 40% 1 20.12.2026 -
Simphiwe Selepe Orlando Pirates Активный 115 / 120 40% 1 18.12.2026 -
Luís Guilherme Sporting CP Активный 122 / 131 40% 1 16.12.2026 -
Monty Batlhabane Polokwane City Активный 85 / 96 40% 1 16.12.2026 -
Jefry Zapata Once Caldas Активный 124 / 112 40% 5 13.12.2026 -
Robert FC Copenhagen Активный 118 / 127 40% 6 10.12.2026 -
Mohamadou Kanté West Ham United Активный 118 / 127 40% 1 10.12.2026 -
Santiago Sosa Yung Defensa y Justicia Активный 115 / 135 40% 1 09.12.2026 -
Luciano Gondou CSKA Moscow Активный 133 / 131 40% 1 09.12.2026 -
Enzo Vázquez Central Norte Активный 100 / 100 40% 2 08.12.2026 -
Matheus Mendes Alverca Активный 116 / 113 40% 1 08.12.2026 -
Ignacio Perruzzi San Lorenzo Активный 129 / 118 40% 6 05.12.2026 -
Nicolás Sumavil Platense Активный 124 / 118 40% 1 03.12.2026 -
Jamie Cumming Oxford United Активный 118 / 114 40% 1 03.12.2026 -
Santiago Mina VfL Wolfsburg Активный 140 / 145 40% 3 02.12.2026 -
Aune Heggebø West Bromwich Albion Активный 122 / 126 40% 2 02.12.2026 -
Urko Izeta Cádiz Активный 130 / 134 40% 2 01.12.2026 -
Andrés Martín Racing Santander Активный 134 / 133 40% 3 01.12.2026 -
Tom Cannon Sheffield United Активный 131 / 128 40% 1 29.11.2026 -
Maximiliano Badur Morón Активный 105 / 103 40% 3 27.11.2026 -
Alex Valencia Santos Laguna Активный 92 / 95 40% 1 27.11.2026 -
Saïmon Bouabré Al-Hilal Активный 120 / 139 40% 1 27.11.2026 -
Alan Velasco Boca Juniors Активный 130 / 129 40% 4 26.11.2026 -
Ramiro Ruiz Rodríguez Atlético Tucumán Активный 128 / 116 40% 1 26.11.2026 -
Ozziel Herrera Tigres Активный 128 / 128 40% 5 23.11.2026 -
Juan Carlos Arana Racing Santander Активный 134 / 134 40% 1 23.11.2026 -
Brayan León Mamelodi Sundowns Активный 128 / 108 40% 1 22.11.2026 -
Nicolò Tresoldi Club Brugge Активный 138 / 135 40% 3 21.11.2026 -
Florián Monzón Atlas Активный 129 / 129 40% 2 21.11.2026 -
Franco Fagúndez Estudiantes Активный 107 / 116 40% 1 21.11.2026 -
Juan Pablo De la Reta Maipú Активный 105 / 117 40% 2 17.11.2026 -
Radek Vítek Middlesbrough Активный 139 / 139 40% 1 15.11.2026 -
Anthony Patterson Wrexham Активный 130 / 126 40% 1 15.11.2026 -
Ricardo Solbes Unión de Santa Fe Активный 95 / 108 40% 1 15.11.2026 -
Alexander Díaz Deportivo Riestra Активный 111 / 115 40% 1 14.11.2026 -
Richard Koné Queens Park Rangers Активный 127 / 128 40% 1 10.11.2026 -
Edvin Austbø Viking Активный 133 / 116 40% 3 08.11.2026 -
Giovanni Baroni Talleres Активный 117 / 125 40% 3 08.11.2026 -
Diego López Valencia Активный 130 / 142 40% 1 07.11.2026 -
Luca Regiardo Newell's Old Boys Активный 103 / 113 40% 3 04.11.2026 -
Josías Palais Independiente Активный 109 / 116 40% 1 04.11.2026 -
Thiago Calone All Boys Активный 106 / 107 40% 2 03.11.2026 -
Felipe Schaare Racing Club Активный 95 / 110 40% 1 03.11.2026 -
Enzo Avaro Mitre Активный 119 / 103 40% 1 03.11.2026 -
Robin Roefs Sunderland Активный 148 / 139 40% 3 02.11.2026 -
Sem Westerveld Zaragoza Активный 107 / 122 40% 1 02.11.2026 -
Yehvann Diouf OGC Nice Активный 139 / 139 40% 1 02.11.2026 -
Adriano Bertaccini Anderlecht Активный 120 / 122 40% 1 30.10.2026 -
Barış Alper Yılmaz Galatasaray Активный 141 / 146 40% 1 29.10.2026 -
Santino Barbi Talleres Активный 115 / 119 40% 1 28.10.2026 -
David Mella Deportivo La Coruña Активный 127 / 129 40% 1 25.10.2026 -
Ezequiel Almirón Estudiantes Активный 103 / 114 40% 1 24.10.2026 -
Mohamed-Ali Cho Hull City Активный 136 / 139 40% 1 24.10.2026 -
Daniel Bassi Lillestrom Активный 113 / 135 40% 2 23.10.2026 -
Lucio Castillo Colegiales Активный 108 / 105 40% 1 23.10.2026 -
Mateo Ostachi Alvarado Активный 97 / 101 40% 1 23.10.2026 -
Ollie Scarles West Ham United Активный 127 / 139 40% 2 21.10.2026 -
Joel Canchimbo Barranquilla Активный 114 / 124 40% 1 21.10.2026 -
Renzo Reynaga Patronato Активный 104 / 104 40% 1 20.10.2026 -
Nicolás Borsotti Defensores Активный 85 / 103 40% 1 19.10.2026 -
Kyriani Sabbe Club Brugge Активный 118 / 124 40% 1 19.10.2026 -
Manfred Ugalde Spartak Moscow Активный 134 / 131 40% 1 18.10.2026 -
Juan Pablo Arango Talleres Активный 102 / 108 40% 1 17.10.2026 -
Jakub Stolarczyk Leicester City Активный 127 / 126 40% 1 17.10.2026 -
Marco Carnesecchi Atalanta Активный 161 / 160 40% 1 17.10.2026 -
Felipe Zenobio Tigre Активный 125 / 137 40% 1 17.10.2026 -
Roony Bardghji Barcelona Активный 138 / 134 40% 1 14.10.2026 -
Gastón Martínez Belgrano Активный 98 / 95 40% 1 14.10.2026 -
Mateo Bustamante Tristán Suárez Активный 89 / 93 40% 1 13.10.2026 -
Sergey Pinyaev Lokomotiv Moscow Активный 123 / 127 40% 1 13.10.2026 -
Elián De La Cruz San Miguel Активный 97 / 95 40% 1 12.10.2026 -
Valentín Villarreal Patronato Активный 103 / 114 40% 3 10.10.2026 -
Santiago Sala Güemes Активный 116 / 109 40% 1 10.10.2026 -
Agustín Gallo Tristán Suárez Активный 115 / 118 40% 1 10.10.2026 -
Chris Brady Chicago Fire Активный 124 / 136 40% 2 09.10.2026 -
James Trafford Leeds United Активный 143 / 146 40% 1 07.10.2026 -
Alex Verón Vélez Активный 104 / 128 40% 1 05.10.2026 -
Mateo Aguiar Defensa y Justicia Активный 118 / 126 40% 1 04.10.2026 -
Tiago Pucciarelli FK Senica Активный 104 / 94 40% 1 25.09.2026 -
Hervin Goyes Deportivo Pasto Активный 94 / 110 40% 2 15.09.2026 -
Lucas Agazzi Defensor Sporting Активный 109 / 126 40% 2 14.09.2026 -
Kevin Álvarez Patriotas Активный 85 / 106 40% 1 14.09.2026 -
Giovanni Cantizano Rosario Central Активный 103 / 110 40% 1 14.09.2026 -
Thiago Helguera Braga Активный 111 / 135 40% 1 11.09.2026 -
Valentino Acuña Newell's Old Boys Активный 107 / 118 40% 1 11.09.2026 -
Ramiro Hernandes Belgrano Активный 120 / 135 40% 1 10.09.2026 -
Samuel Lucero Defensa y Justicia Активный 104 / 118 40% 1 09.09.2026 -
Tobías Andrada River Plate Активный 122 / 133 40% 1 09.09.2026 -
Daijiro Chirino Almería Активный 128 / 125 69% 1 24.08.2026 -
Halam Loboa Independiente Medellin Активный 116 / 138 40% 1 02.08.2026 -